Kezdőlap
METAR-TAF:

METAR-TAF

Repülőterek :

Xi'an, Kína

földrajzi szélesség: 34-26N, földrajzi hosszúság: 108-45E, magasság: 479 m

Jelenlegi meteorológiai megfigyelések

A jelentés 31 perccel ezelõtt készült, 21:00 UTC
Nyugat-délnyugati szél 4 kt, dél-délnyugati és nyugati között változik
Hőmérséklet 7°C
Páratartalom 100%
Légköri nyomás 1024 hPa
Látótávolság: 2000 m
Párásság

METAR: ZLXY 212100Z 24002MPS 210V280 2000 BR NSC 07/07 Q1024 NOSIG

Idő: 05:31 (21:31 UTC)

Előrejelzés

A jelentés 2 órával és 13 perccel ezelõtt készült, 19:18 UTC
Az előrejelzés 21-én 18 óra UTC és 22-én 18 óra UTC között érvényes
Nyugat-délnyugati szél 6 kt
Látótávolság: 1500 m
Párásság
22-én 01 óra UTC és 22-én 02 óra UTC között fokozatosan kialakuló
Látótávolság: 3000 m
21-én 20 óra UTC és 21-én 24 óra UTC között ideiglenes
Látótávolság: 0500 m
köd

TAF: ZLXY 211918Z 2118/2218 24003MPS 1500 BR NSC TX21/2207Z TN05/2121Z BECMG 2201/2202 3000 TEMPO 2120/2124 0500 FG

Meteorológiai megfigyelések és előrejelzések több, mint 4000 repülőtéren (METAR és TAF jelentéseket).

A térképen piros és sárga pontok jelzik az elérhető meteorológiai állomásokat.

Mozgassa az egeret a pont fölött, hogy megjelenjen az állomás neve.

Azután kattintson az időjárási megfigyelések és előrejelzések megtekintéséhez.

A térkép megváltoztatása: kattintson a fekete keresztel jelölt zöld gombra ráközelítéshez, a vonallal jelölt zöld gombra távolításhoz, vagy a zöld nyilakra a szomszédos térképek eléréséhez.


METAR-TAF: